createdAt,value
2023-04-11T00:00:25.894Z,8.10
2023-04-11T00:03:00.202Z,8.10
2023-04-11T00:05:31.288Z,8.00
2023-04-11T00:07:59.657Z,7.90
2023-04-11T00:10:28.076Z,8.00
2023-04-11T00:12:56.886Z,7.90
2023-04-11T00:15:26.979Z,8.00
2023-04-11T00:17:58.601Z,7.90
2023-04-11T00:20:27.021Z,8.00
2023-04-11T00:22:58.420Z,8.00
2023-04-11T00:25:27.120Z,7.90
2023-04-11T00:27:55.472Z,8.00
2023-04-11T00:30:23.910Z,8.30
2023-04-11T00:32:52.217Z,8.30
2023-04-11T00:35:22.074Z,8.40
2023-04-11T00:37:56.059Z,8.40
2023-04-11T00:40:24.499Z,8.40
2023-04-11T00:42:52.832Z,8.40
2023-04-11T00:45:21.241Z,8.50
2023-04-11T00:47:50.743Z,8.50
2023-04-11T00:50:22.039Z,8.60
2023-04-11T00:52:53.029Z,8.50
2023-04-11T00:55:21.590Z,8.50
2023-04-11T00:57:49.928Z,8.40
2023-04-11T01:00:18.617Z,8.40
2023-04-11T01:02:47.020Z,8.50
2023-04-11T01:05:16.598Z,8.40
2023-04-11T01:07:47.871Z,8.50
2023-04-11T01:10:18.917Z,8.50
2023-04-11T01:12:48.094Z,8.50
2023-04-11T01:15:16.652Z,8.50
2023-04-11T01:17:45.648Z,8.40
2023-04-11T01:20:14.407Z,8.40
2023-04-11T01:22:44.077Z,8.30
2023-04-11T01:25:15.677Z,8.20
2023-04-11T01:27:45.019Z,8.10
2023-04-11T01:30:13.937Z,8.00
2023-04-11T01:32:42.392Z,7.80
2023-04-11T01:35:12.909Z,7.80
2023-04-11T01:37:41.343Z,7.80
2023-04-11T01:40:10.641Z,7.80
2023-04-11T01:42:40.735Z,7.80
2023-04-11T01:45:10.473Z,7.90
2023-04-11T01:47:39.073Z,7.90
2023-04-11T01:50:09.011Z,7.90
2023-04-11T01:52:37.406Z,8.00
2023-04-11T01:55:06.434Z,8.10
2023-04-11T01:57:34.668Z,8.20
2023-04-11T02:00:06.199Z,8.20
2023-04-11T02:02:34.956Z,8.10
2023-04-11T02:05:03.625Z,8.20
2023-04-11T02:07:32.054Z,8.30
2023-04-11T02:10:01.136Z,8.40
2023-04-11T02:12:29.396Z,8.40
2023-04-11T02:14:57.656Z,8.50
2023-04-11T02:17:31.420Z,8.50
2023-04-11T02:19:59.796Z,8.80
2023-04-11T02:22:28.167Z,8.80
2023-04-11T02:24:56.460Z,8.80
2023-04-11T02:27:24.731Z,8.80
2023-04-11T02:29:53.165Z,8.80
2023-04-11T02:32:21.600Z,8.80
2023-04-11T02:34:51.568Z,8.90
2023-04-11T02:37:20.125Z,8.80
2023-04-11T02:39:48.672Z,8.80
2023-04-11T02:42:17.077Z,8.90
2023-04-11T02:44:45.370Z,8.90
2023-04-11T02:47:13.710Z,8.90
2023-04-11T02:49:42.482Z,8.90
2023-04-11T02:52:12.324Z,8.90
2023-04-11T02:54:40.807Z,8.80
2023-04-11T02:57:09.182Z,8.70
2023-04-11T02:59:37.524Z,8.80
2023-04-11T03:02:06.100Z,8.70
2023-04-11T03:04:34.632Z,8.70
2023-04-11T03:07:03.047Z,8.70
2023-04-11T03:09:32.984Z,8.60
2023-04-11T03:12:02.204Z,8.60
2023-04-11T03:14:30.757Z,8.60
2023-04-11T03:16:59.324Z,8.60
2023-04-11T03:19:27.761Z,8.60
2023-04-11T03:21:56.216Z,8.70
2023-04-11T03:24:24.496Z,8.60
2023-04-11T03:26:54.195Z,8.50
2023-04-11T03:29:22.474Z,8.40
2023-04-11T03:31:51.176Z,8.30
2023-04-11T03:34:19.593Z,8.20
2023-04-11T03:36:48.092Z,8.10
2023-04-11T03:39:17.141Z,8.10
2023-04-11T03:41:48.617Z,8.10
2023-04-11T03:44:18.575Z,8.10
2023-04-11T03:46:47.017Z,8.00
2023-04-11T03:49:15.368Z,8.00
2023-04-11T03:51:43.669Z,8.00
2023-04-11T03:54:12.134Z,7.90
2023-04-11T03:56:40.887Z,7.90
2023-04-11T03:59:09.212Z,7.90
2023-04-11T04:01:42.076Z,7.90
2023-04-11T04:04:10.964Z,7.90
2023-04-11T04:06:39.510Z,7.90
2023-04-11T04:09:07.834Z,7.80
2023-04-11T04:11:36.156Z,7.70
2023-04-11T04:14:04.975Z,7.70
2023-04-11T04:16:33.297Z,7.60
2023-04-11T04:19:03.142Z,7.50
2023-04-11T04:21:32.870Z,7.50
2023-04-11T04:24:03.837Z,7.70
2023-04-11T04:26:32.475Z,7.70
2023-04-11T04:29:04.629Z,7.70
2023-04-11T04:31:34.807Z,7.70
2023-04-11T04:34:08.870Z,7.70
2023-04-11T04:36:46.447Z,7.70
2023-04-11T04:39:18.045Z,7.70
2023-04-11T04:41:48.757Z,7.70
2023-04-11T04:44:17.649Z,7.60
2023-04-11T04:46:46.177Z,7.60
2023-04-11T04:49:16.269Z,7.60
2023-04-11T04:51:44.794Z,7.60
2023-04-11T04:54:13.148Z,7.60
2023-04-11T04:56:42.404Z,7.60
2023-04-11T04:59:14.682Z,7.60
2023-04-11T05:01:43.176Z,7.60
2023-04-11T05:04:11.978Z,7.60
2023-04-11T05:06:41.938Z,7.60
2023-04-11T05:09:10.360Z,7.60
2023-04-11T05:11:38.682Z,7.60
2023-04-11T05:14:07.106Z,7.60
2023-04-11T05:16:35.530Z,7.60
2023-04-11T05:19:04.130Z,7.60
2023-04-11T05:21:32.464Z,7.60
2023-04-11T05:24:02.277Z,7.60
2023-04-11T05:26:31.731Z,7.60
2023-04-11T05:29:00.887Z,7.60
2023-04-11T05:31:29.131Z,7.60
2023-04-11T05:33:58.593Z,7.60
2023-04-11T05:36:28.391Z,7.60
2023-04-11T05:38:56.930Z,7.60
2023-04-11T05:41:28.001Z,7.70
2023-04-11T05:43:56.506Z,7.60
2023-04-11T05:46:25.011Z,7.60
2023-04-11T05:48:53.306Z,7.60
2023-04-11T05:51:22.859Z,7.60
2023-04-11T05:53:51.107Z,7.60
2023-04-11T05:56:19.372Z,7.60
2023-04-11T05:58:49.186Z,7.70
2023-04-11T06:01:19.352Z,7.70
2023-04-11T06:03:48.394Z,7.70
2023-04-11T06:06:16.901Z,7.70
2023-04-11T06:08:45.751Z,7.70
2023-04-11T06:11:14.039Z,7.60
2023-04-11T06:13:42.324Z,7.60
2023-04-11T06:16:12.192Z,7.50
2023-04-11T06:18:40.460Z,7.40
2023-04-11T06:21:08.868Z,7.30
2023-04-11T06:23:37.311Z,7.20
2023-04-11T06:26:05.693Z,7.10
2023-04-11T06:28:33.920Z,7.00
2023-04-11T06:31:02.237Z,6.90
2023-04-11T06:33:31.974Z,6.70
2023-04-11T06:36:00.460Z,6.70
2023-04-11T06:38:28.785Z,6.60
2023-04-11T06:40:57.337Z,6.60
2023-04-11T06:43:25.589Z,6.50
2023-04-11T06:45:54.060Z,6.40
2023-04-11T06:48:22.422Z,6.30
2023-04-11T06:50:52.433Z,6.20
2023-04-11T06:53:21.580Z,6.20
2023-04-11T06:55:50.543Z,6.10
2023-04-11T06:58:18.976Z,6.10
2023-04-11T07:00:47.534Z,6.00
2023-04-11T07:03:15.990Z,6.00
2023-04-11T07:05:44.345Z,5.90
2023-04-11T07:08:14.011Z,5.90
2023-04-11T07:10:42.286Z,5.90
2023-04-11T07:13:10.768Z,5.90
2023-04-11T07:15:39.002Z,5.80
2023-04-11T07:18:07.392Z,5.80
2023-04-11T07:20:36.713Z,5.80
2023-04-11T07:23:05.108Z,5.80
2023-04-11T07:25:35.303Z,5.80
2023-04-11T07:28:08.442Z,5.80
2023-04-11T07:30:37.478Z,5.80
2023-04-11T07:33:06.208Z,5.90
2023-04-11T07:35:35.359Z,6.00
2023-04-11T07:38:03.657Z,6.10
2023-04-11T07:40:32.176Z,6.20
2023-04-11T07:43:02.324Z,6.20
2023-04-11T07:45:30.784Z,6.30
2023-04-11T07:47:59.109Z,6.30
2023-04-11T07:50:27.409Z,6.40
2023-04-11T07:52:55.993Z,6.40
2023-04-11T07:55:24.324Z,6.40
2023-04-11T07:57:52.555Z,6.40
2023-04-11T08:00:23.956Z,6.40
2023-04-11T08:02:53.056Z,6.50
2023-04-11T08:05:21.729Z,6.50
2023-04-11T08:07:50.097Z,6.60
2023-04-11T08:10:18.453Z,6.60
2023-04-11T08:12:46.658Z,6.60
2023-04-11T08:15:15.151Z,6.60
2023-04-11T08:17:45.581Z,6.60
2023-04-11T08:20:14.317Z,6.60
2023-04-11T08:22:44.793Z,6.70
2023-04-11T08:25:14.828Z,6.80
2023-04-11T08:27:43.218Z,6.80
2023-04-11T08:30:11.947Z,6.90
2023-04-11T08:32:41.017Z,7.00
2023-04-11T08:35:11.572Z,7.10
2023-04-11T08:37:39.804Z,7.30
2023-04-11T08:40:09.611Z,7.30
2023-04-11T08:42:38.035Z,7.30
2023-04-11T08:45:08.862Z,7.30
2023-04-11T08:47:38.083Z,7.30
2023-04-11T08:50:07.169Z,7.10
2023-04-11T08:52:39.616Z,7.10
2023-04-11T08:55:08.277Z,6.90
2023-04-11T08:57:38.179Z,6.80
2023-04-11T09:00:14.956Z,6.70
2023-04-11T09:03:00.406Z,6.60
2023-04-11T09:05:33.343Z,6.60
2023-04-11T09:08:04.496Z,6.60
2023-04-11T09:10:32.837Z,6.60
2023-04-11T09:13:02.294Z,6.70
2023-04-11T09:15:32.863Z,6.70
2023-04-11T09:18:02.163Z,6.70
2023-04-11T09:20:34.024Z,6.70
2023-04-11T09:23:06.573Z,6.70
2023-04-11T09:25:45.437Z,6.80
2023-04-11T09:28:13.809Z,6.80
2023-04-11T09:30:51.203Z,6.90
2023-04-11T09:33:25.812Z,7.00
2023-04-11T09:35:56.122Z,7.00
2023-04-11T09:38:33.408Z,7.00
2023-04-11T09:41:03.122Z,7.10
2023-04-11T09:43:50.502Z,7.10
2023-04-11T09:46:20.937Z,7.20
2023-04-11T09:48:50.213Z,7.30
2023-04-11T09:53:59.423Z,7.40
2023-04-11T09:56:29.937Z,7.40
2023-04-11T09:59:00.181Z,7.40
2023-04-11T10:01:28.608Z,7.60
2023-04-11T10:03:58.353Z,7.80
2023-04-11T10:06:34.125Z,8.00
2023-04-11T10:09:13.612Z,8.20
2023-04-11T10:11:43.883Z,8.30
2023-04-11T10:14:45.707Z,8.50
2023-04-11T10:17:19.785Z,8.60
2023-04-11T10:19:51.727Z,8.70
2023-04-11T10:22:56.439Z,8.80
2023-04-11T10:25:27.684Z,9.00
2023-04-11T10:28:00.745Z,9.00
2023-04-11T10:31:04.690Z,8.90
2023-04-11T10:33:33.896Z,8.70
2023-04-11T10:36:05.270Z,8.50
2023-04-11T10:38:49.923Z,8.40
2023-04-11T10:41:32.795Z,8.30
2023-04-11T10:44:22.728Z,8.10
2023-04-11T10:46:55.937Z,8.00
2023-04-11T10:49:35.330Z,8.00
2023-04-11T10:52:20.937Z,8.30
2023-04-11T10:54:49.720Z,8.70
2023-04-11T10:57:19.829Z,9.00
2023-04-11T11:00:01.917Z,9.20
2023-04-11T11:02:41.167Z,9.40
2023-04-11T11:05:20.820Z,9.80
2023-04-11T11:07:54.077Z,10.20
2023-04-11T11:10:41.676Z,10.50
2023-04-11T11:13:11.708Z,10.80
2023-04-11T11:15:40.162Z,11.10
2023-04-11T11:18:10.612Z,11.30
2023-04-11T11:20:40.840Z,11.90
2023-04-11T11:23:11.608Z,12.30
2023-04-11T11:25:39.925Z,13.00
2023-04-11T11:28:10.595Z,13.40
2023-04-11T11:30:39.067Z,13.20
2023-04-11T11:33:21.682Z,13.20
2023-04-11T11:35:53.972Z,12.90
2023-04-11T11:38:23.716Z,13.00
2023-04-11T11:40:52.864Z,13.20
2023-04-11T11:43:22.722Z,13.40
2023-04-11T11:46:09.246Z,13.60
2023-04-11T11:48:38.137Z,14.30
2023-04-11T11:51:07.139Z,15.00
2023-04-11T11:53:35.740Z,15.40
2023-04-11T11:56:17.130Z,14.70
2023-04-11T11:58:50.046Z,14.20
2023-04-11T12:01:18.519Z,14.30
2023-04-11T12:03:51.643Z,13.70
2023-04-11T12:06:21.117Z,12.70
2023-04-11T12:08:53.983Z,10.50
2023-04-11T12:11:22.674Z,8.10
2023-04-11T12:13:58.790Z,6.60
2023-04-11T12:16:27.815Z,5.90
2023-04-11T12:18:59.476Z,5.40
2023-04-11T12:21:27.935Z,5.20
2023-04-11T12:23:57.039Z,5.20
2023-04-11T12:26:25.898Z,5.30
2023-04-11T12:28:56.047Z,5.40
2023-04-11T12:31:25.288Z,5.40
2023-04-11T12:33:53.869Z,5.60
2023-04-11T12:36:23.023Z,5.80
2023-04-11T12:38:51.468Z,5.90
2023-04-11T12:41:32.245Z,6.10
2023-04-11T12:44:04.101Z,6.10
2023-04-11T12:46:33.813Z,6.20
2023-04-11T12:49:02.320Z,6.30
2023-04-11T12:51:34.256Z,6.20
2023-04-11T12:54:04.020Z,6.30
2023-04-11T12:56:32.679Z,6.30
2023-04-11T12:59:02.638Z,6.40
2023-04-11T13:01:31.644Z,6.40
2023-04-11T13:04:00.223Z,6.50
2023-04-11T13:06:29.647Z,6.50
2023-04-11T13:08:58.374Z,6.70
2023-04-11T13:11:27.122Z,6.80
2023-04-11T13:13:55.570Z,7.00
2023-04-11T13:16:25.804Z,7.00
2023-04-11T13:18:57.511Z,7.00
2023-04-11T13:21:26.839Z,7.10
2023-04-11T13:23:56.151Z,7.10
2023-04-11T13:26:24.926Z,7.20
2023-04-11T13:28:53.180Z,7.40
2023-04-11T13:31:26.553Z,7.70
2023-04-11T13:33:57.458Z,7.90
2023-04-11T13:36:27.142Z,8.40
2023-04-11T13:38:56.710Z,9.90
2023-04-11T13:41:25.593Z,11.20
2023-04-11T13:43:54.234Z,12.10
2023-04-11T13:46:23.345Z,12.50
2023-04-11T13:48:52.117Z,13.20
2023-04-11T13:51:21.944Z,14.20
2023-04-11T13:53:50.363Z,14.60
2023-04-11T13:56:20.577Z,14.40
2023-04-11T13:58:48.789Z,13.90
2023-04-11T14:01:17.270Z,14.10
2023-04-11T14:03:45.769Z,13.50
2023-04-11T14:06:14.283Z,13.40
2023-04-11T14:08:43.883Z,13.30
2023-04-11T14:11:12.167Z,12.50
2023-04-11T14:13:43.560Z,12.20
2023-04-11T14:16:12.193Z,12.10
2023-04-11T14:18:44.995Z,11.70
2023-04-11T14:21:13.378Z,10.80
2023-04-11T14:23:43.078Z,10.10
2023-04-11T14:26:11.671Z,9.70
2023-04-11T14:28:40.154Z,9.60
2023-04-11T14:31:09.541Z,9.50
2023-04-11T14:33:37.879Z,9.40
2023-04-11T14:36:09.092Z,9.30
2023-04-11T14:38:37.323Z,9.30
2023-04-11T14:41:10.508Z,9.20
2023-04-11T14:43:38.777Z,9.20
2023-04-11T14:46:07.294Z,9.10
2023-04-11T14:48:35.782Z,9.00
2023-04-11T14:51:04.438Z,8.90
2023-04-11T14:53:32.657Z,8.90
2023-04-11T14:56:02.221Z,8.90
2023-04-11T14:58:31.886Z,9.00
2023-04-11T15:01:00.216Z,9.10
2023-04-11T15:03:28.924Z,9.20
2023-04-11T15:05:57.365Z,9.30
2023-04-11T15:08:25.749Z,9.40
2023-04-11T15:10:54.650Z,9.40
2023-04-11T15:13:23.677Z,9.30
2023-04-11T15:15:53.599Z,9.40
2023-04-11T15:18:26.991Z,9.50
2023-04-11T15:20:56.205Z,9.50
2023-04-11T15:23:24.642Z,9.50
2023-04-11T15:25:56.942Z,9.30
2023-04-11T15:28:26.748Z,9.40
2023-04-11T15:30:56.757Z,9.50
2023-04-11T15:33:25.134Z,10.20
2023-04-11T15:35:54.748Z,10.20
2023-04-11T15:38:23.445Z,9.90
2023-04-11T15:40:52.105Z,9.60
2023-04-11T15:43:20.523Z,9.30
2023-04-11T15:45:49.026Z,9.10
2023-04-11T15:48:19.135Z,8.90
2023-04-11T15:50:47.448Z,8.80
2023-04-11T15:53:21.921Z,8.70
2023-04-11T15:55:50.161Z,8.50
2023-04-11T15:58:30.205Z,8.40
2023-04-11T16:01:01.186Z,8.30
2023-04-11T16:03:32.767Z,8.20
2023-04-11T16:06:01.235Z,8.30
2023-04-11T16:08:32.136Z,8.50
2023-04-11T16:11:00.529Z,8.60
2023-04-11T16:13:29.101Z,8.80
2023-04-11T16:15:57.394Z,8.80
2023-04-11T16:18:25.775Z,8.80
2023-04-11T16:20:55.666Z,8.60
2023-04-11T16:23:24.647Z,8.50
2023-04-11T16:25:52.952Z,8.40
2023-04-11T16:28:24.094Z,8.20
2023-04-11T16:30:52.819Z,8.00
2023-04-11T16:33:24.141Z,7.90
2023-04-11T16:35:55.397Z,7.80
2023-04-11T16:38:28.148Z,7.90
2023-04-11T16:40:59.438Z,7.80
2023-04-11T16:43:30.710Z,7.60
2023-04-11T16:46:02.798Z,7.40
2023-04-11T16:48:31.633Z,7.30
2023-04-11T16:50:59.949Z,7.20
2023-04-11T16:53:29.700Z,7.10
2023-04-11T16:55:58.479Z,7.00
2023-04-11T16:58:27.469Z,6.90
2023-04-11T17:00:56.136Z,6.80
2023-04-11T17:03:24.832Z,6.60
2023-04-11T17:05:56.085Z,6.50
2023-04-11T17:08:26.529Z,6.30
2023-04-11T17:11:09.326Z,6.20
2023-04-11T17:13:38.475Z,6.10
2023-04-11T17:16:08.054Z,5.90
2023-04-11T17:18:36.620Z,5.80
2023-04-11T17:21:05.513Z,5.60
2023-04-11T17:23:42.607Z,5.60
2023-04-11T17:26:13.836Z,5.60
2023-04-11T17:28:43.092Z,5.60
2023-04-11T17:31:15.581Z,5.70
2023-04-11T17:33:44.157Z,5.80
2023-04-11T17:36:13.700Z,5.80
2023-04-11T17:38:45.689Z,5.70
2023-04-11T17:41:18.615Z,5.70
2023-04-11T17:43:46.953Z,5.80
2023-04-11T17:46:15.297Z,5.70
2023-04-11T17:48:43.641Z,5.60
2023-04-11T17:51:11.948Z,5.40
2023-04-11T17:53:43.030Z,5.30
2023-04-11T17:56:18.866Z,5.10
2023-04-11T17:58:48.218Z,4.90
2023-04-11T18:01:19.718Z,4.70
2023-04-11T18:03:48.497Z,4.70
2023-04-11T18:06:16.777Z,4.60
2023-04-11T18:08:50.588Z,4.60
2023-04-11T18:11:27.222Z,4.50
2023-04-11T18:13:56.008Z,4.40
2023-04-11T18:16:40.542Z,4.20
2023-04-11T18:19:15.365Z,4.10
2023-04-11T18:21:44.030Z,4.20
2023-04-11T18:24:12.415Z,4.10
2023-04-11T18:26:42.158Z,3.90
2023-04-11T18:29:11.306Z,3.70
2023-04-11T18:31:48.824Z,3.60
2023-04-11T18:34:17.404Z,3.50
2023-04-11T18:36:47.014Z,3.40
2023-04-11T18:39:15.759Z,3.30
2023-04-11T18:41:46.463Z,3.20
2023-04-11T18:44:15.574Z,3.10
2023-04-11T18:46:47.621Z,3.00
2023-04-11T18:49:18.013Z,3.00
2023-04-11T18:51:51.396Z,2.90
2023-04-11T18:54:23.484Z,2.80
2023-04-11T18:56:54.447Z,2.70
2023-04-11T18:59:29.751Z,2.60
2023-04-11T19:01:58.829Z,2.60
2023-04-11T19:04:33.881Z,2.60
2023-04-11T19:07:03.604Z,2.70
2023-04-11T19:09:32.999Z,2.80
2023-04-11T19:16:12.431Z,3.50
2023-04-11T19:19:32.129Z,4.50
2023-04-11T19:29:27.639Z,5.10
2023-04-11T19:35:55.884Z,5.00
2023-04-11T19:38:33.370Z,4.90
2023-04-11T19:44:18.844Z,4.70
2023-04-11T19:46:59.138Z,4.50
2023-04-11T19:49:32.876Z,4.40
2023-04-11T19:52:08.546Z,4.30
2023-04-11T19:54:40.600Z,4.20
2023-04-11T19:57:09.135Z,4.10
2023-04-11T19:59:37.543Z,4.00
2023-04-11T20:02:12.358Z,3.80
2023-04-11T20:04:46.029Z,3.60
2023-04-11T20:07:14.592Z,3.50
2023-04-11T20:09:43.348Z,3.40
2023-04-11T20:12:11.731Z,3.30
2023-04-11T20:14:40.148Z,3.30
2023-04-11T20:17:09.711Z,3.30
2023-04-11T20:19:38.795Z,3.30
2023-04-11T20:22:17.579Z,3.30
2023-04-11T20:24:47.526Z,3.30
2023-04-11T20:27:19.387Z,3.40
2023-04-11T20:29:50.565Z,3.40
2023-04-11T20:32:28.467Z,3.50
2023-04-11T20:34:58.021Z,3.50
2023-04-11T20:37:30.864Z,3.50
2023-04-11T20:39:59.455Z,3.50
2023-04-11T20:42:28.079Z,3.40
2023-04-11T20:45:10.445Z,3.50
2023-04-11T20:47:39.247Z,3.40
2023-04-11T20:50:10.542Z,3.30
2023-04-11T20:52:42.553Z,3.10
2023-04-11T20:55:12.672Z,2.90
2023-04-11T20:57:41.178Z,2.80
2023-04-11T21:00:17.497Z,2.60
2023-04-11T21:02:50.649Z,2.40
2023-04-11T21:05:25.774Z,2.30
2023-04-11T21:08:02.637Z,2.30
2023-04-11T21:10:37.560Z,2.40
2023-04-11T21:13:14.445Z,2.50
2023-04-11T21:15:42.841Z,2.50
2023-04-11T21:18:14.377Z,2.50
2023-04-11T21:20:42.869Z,2.30
2023-04-11T21:23:13.516Z,2.20
2023-04-11T21:25:42.252Z,2.00
2023-04-11T21:28:16.331Z,1.80
2023-04-11T21:30:47.872Z,1.60
2023-04-11T21:33:17.615Z,1.40
2023-04-11T21:35:46.581Z,1.30
2023-04-11T21:38:17.426Z,1.20
2023-04-11T21:40:51.294Z,1.10
2023-04-11T21:43:21.595Z,1.00
2023-04-11T21:45:50.099Z,0.90
2023-04-11T21:48:18.880Z,0.80
2023-04-11T21:50:50.220Z,0.80
2023-04-11T21:53:20.005Z,0.80
2023-04-11T21:55:48.880Z,0.90
2023-04-11T21:58:28.651Z,0.80
2023-04-11T22:00:58.201Z,0.80
2023-04-11T22:03:29.086Z,0.80
2023-04-11T22:05:58.278Z,0.80
2023-04-11T22:08:30.663Z,0.70
2023-04-11T22:10:59.420Z,0.60
2023-04-11T22:13:27.856Z,0.70
2023-04-11T22:16:05.516Z,0.80
2023-04-11T22:18:38.431Z,0.90
2023-04-11T22:21:09.434Z,1.00
2023-04-11T22:23:39.412Z,0.90
2023-04-11T22:26:26.230Z,0.90
2023-04-11T22:28:58.964Z,0.90
2023-04-11T22:31:30.717Z,1.00
2023-04-11T22:33:59.403Z,1.20
2023-04-11T22:36:28.274Z,1.20
2023-04-11T22:38:59.381Z,1.10
2023-04-11T22:41:27.863Z,1.10
2023-04-11T22:43:56.421Z,1.00
2023-04-11T22:46:25.629Z,0.90
2023-04-11T22:48:58.951Z,0.90
2023-04-11T22:51:30.200Z,0.90
2023-04-11T22:54:01.112Z,0.80
2023-04-11T22:56:29.629Z,0.80
2023-04-11T22:59:03.869Z,0.90
2023-04-11T23:01:33.182Z,0.90
2023-04-11T23:04:04.633Z,0.90
2023-04-11T23:06:33.069Z,0.90
2023-04-11T23:09:06.903Z,0.90
2023-04-11T23:11:38.743Z,0.90
2023-04-11T23:14:11.004Z,0.90
2023-04-11T23:16:43.379Z,0.90
2023-04-11T23:19:12.556Z,0.90
2023-04-11T23:21:41.151Z,0.90
2023-04-11T23:24:11.392Z,1.00
2023-04-11T23:26:39.978Z,1.00
2023-04-11T23:29:08.675Z,1.00
2023-04-11T23:31:37.117Z,1.00
2023-04-11T23:34:05.757Z,1.00
2023-04-11T23:36:34.620Z,1.00
2023-04-11T23:39:03.666Z,0.90
2023-04-11T23:41:33.768Z,0.90
2023-04-11T23:44:02.461Z,0.80
2023-04-11T23:46:31.472Z,0.70
2023-04-11T23:49:03.288Z,0.60
2023-04-11T23:51:31.879Z,0.50
2023-04-11T23:54:03.302Z,0.40
2023-04-11T23:56:33.129Z,0.20
2023-04-11T23:59:02.234Z,0.20
